sensor_id;sensor_type;location;lat;lon;timestamp;temperature;humidity
1415;DHT22;702;49.466;11.086;2023-03-23T00:02:25;10.40;75.30
1415;DHT22;702;49.466;11.086;2023-03-23T00:04:53;10.30;75.40
1415;DHT22;702;49.466;11.086;2023-03-23T00:07:22;10.30;75.70
1415;DHT22;702;49.466;11.086;2023-03-23T00:09:54;10.20;75.90
1415;DHT22;702;49.466;11.086;2023-03-23T00:12:23;10.20;76.00
1415;DHT22;702;49.466;11.086;2023-03-23T00:14:54;10.20;76.10
1415;DHT22;702;49.466;11.086;2023-03-23T00:17:22;10.10;76.30
1415;DHT22;702;49.466;11.086;2023-03-23T00:19:50;10.10;76.40
1415;DHT22;702;49.466;11.086;2023-03-23T00:22:17;10.20;76.60
1415;DHT22;702;49.466;11.086;2023-03-23T00:24:48;10.20;76.60
1415;DHT22;702;49.466;11.086;2023-03-23T00:27:16;10.30;76.50
1415;DHT22;702;49.466;11.086;2023-03-23T00:29:44;10.30;76.40
1415;DHT22;702;49.466;11.086;2023-03-23T00:32:13;10.40;76.30
1415;DHT22;702;49.466;11.086;2023-03-23T00:34:42;10.40;76.10
1415;DHT22;702;49.466;11.086;2023-03-23T00:37:11;10.50;76.10
1415;DHT22;702;49.466;11.086;2023-03-23T00:39:42;10.40;76.10
1415;DHT22;702;49.466;11.086;2023-03-23T00:42:15;10.30;76.20
1415;DHT22;702;49.466;11.086;2023-03-23T00:44:42;10.30;76.10
1415;DHT22;702;49.466;11.086;2023-03-23T00:47:11;10.30;76.00
1415;DHT22;702;49.466;11.086;2023-03-23T00:49:41;10.40;76.00
1415;DHT22;702;49.466;11.086;2023-03-23T00:52:09;10.40;76.00
1415;DHT22;702;49.466;11.086;2023-03-23T00:54:38;10.40;75.50
1415;DHT22;702;49.466;11.086;2023-03-23T00:57:05;10.50;75.90
1415;DHT22;702;49.466;11.086;2023-03-23T00:59:34;10.50;75.90
1415;DHT22;702;49.466;11.086;2023-03-23T01:02:02;10.50;75.90
1415;DHT22;702;49.466;11.086;2023-03-23T01:04:30;10.50;75.80
1415;DHT22;702;49.466;11.086;2023-03-23T01:06:58;10.50;75.70
1415;DHT22;702;49.466;11.086;2023-03-23T01:09:27;10.50;75.40
1415;DHT22;702;49.466;11.086;2023-03-23T01:11:54;10.60;75.40
1415;DHT22;702;49.466;11.086;2023-03-23T01:14:22;10.60;75.10
1415;DHT22;702;49.466;11.086;2023-03-23T01:16:52;10.60;75.00
1415;DHT22;702;49.466;11.086;2023-03-23T01:19:19;10.70;74.70
1415;DHT22;702;49.466;11.086;2023-03-23T01:21:46;10.80;74.20
1415;DHT22;702;49.466;11.086;2023-03-23T01:24:14;10.90;73.70
1415;DHT22;702;49.466;11.086;2023-03-23T01:26:41;11.00;73.30
1415;DHT22;702;49.466;11.086;2023-03-23T01:29:08;11.00;72.90
1415;DHT22;702;49.466;11.086;2023-03-23T01:31:36;11.10;72.90
1415;DHT22;702;49.466;11.086;2023-03-23T01:34:05;11.10;72.40
1415;DHT22;702;49.466;11.086;2023-03-23T01:36:33;11.20;72.20
1415;DHT22;702;49.466;11.086;2023-03-23T01:39:02;11.20;71.90
1415;DHT22;702;49.466;11.086;2023-03-23T01:41:31;11.30;71.80
1415;DHT22;702;49.466;11.086;2023-03-23T01:44:01;11.30;71.50
1415;DHT22;702;49.466;11.086;2023-03-23T01:46:31;11.30;71.10
1415;DHT22;702;49.466;11.086;2023-03-23T01:49:05;11.30;71.10
1415;DHT22;702;49.466;11.086;2023-03-23T01:51:36;11.30;70.80
1415;DHT22;702;49.466;11.086;2023-03-23T01:54:09;11.40;70.60
1415;DHT22;702;49.466;11.086;2023-03-23T01:56:43;11.50;70.40
1415;DHT22;702;49.466;11.086;2023-03-23T01:59:13;11.50;70.30
1415;DHT22;702;49.466;11.086;2023-03-23T02:01:41;11.50;70.10
1415;DHT22;702;49.466;11.086;2023-03-23T02:04:13;11.60;69.90
1415;DHT22;702;49.466;11.086;2023-03-23T02:06:42;11.70;69.70
1415;DHT22;702;49.466;11.086;2023-03-23T02:09:10;11.80;69.40
1415;DHT22;702;49.466;11.086;2023-03-23T02:11:39;11.80;69.20
1415;DHT22;702;49.466;11.086;2023-03-23T02:14:06;11.90;69.00
1415;DHT22;702;49.466;11.086;2023-03-23T02:16:40;11.90;68.80
1415;DHT22;702;49.466;11.086;2023-03-23T02:19:34;11.80;68.90
1415;DHT22;702;49.466;11.086;2023-03-23T02:22:30;11.90;68.60
1415;DHT22;702;49.466;11.086;2023-03-23T02:25:22;11.90;68.40
1415;DHT22;702;49.466;11.086;2023-03-23T02:28:14;12.00;68.00
1415;DHT22;702;49.466;11.086;2023-03-23T02:30:57;11.90;68.00
1415;DHT22;702;49.466;11.086;2023-03-23T02:33:38;12.00;67.90
1415;DHT22;702;49.466;11.086;2023-03-23T02:36:14;12.00;67.40
1415;DHT22;702;49.466;11.086;2023-03-23T02:38:54;11.90;67.40
1415;DHT22;702;49.466;11.086;2023-03-23T02:41:28;12.00;67.50
1415;DHT22;702;49.466;11.086;2023-03-23T02:44:02;12.00;67.50
1415;DHT22;702;49.466;11.086;2023-03-23T02:46:30;12.00;67.60
1415;DHT22;702;49.466;11.086;2023-03-23T02:49:01;12.00;67.50
1415;DHT22;702;49.466;11.086;2023-03-23T02:51:31;11.90;67.30
1415;DHT22;702;49.466;11.086;2023-03-23T02:54:00;12.00;67.30
1415;DHT22;702;49.466;11.086;2023-03-23T02:56:29;12.00;67.30
1415;DHT22;702;49.466;11.086;2023-03-23T02:58:59;11.90;67.10
1415;DHT22;702;49.466;11.086;2023-03-23T03:01:55;12.00;67.00
1415;DHT22;702;49.466;11.086;2023-03-23T03:04:34;12.00;67.00
1415;DHT22;702;49.466;11.086;2023-03-23T03:07:32;12.00;66.90
1415;DHT22;702;49.466;11.086;2023-03-23T03:10:08;12.00;66.70
1415;DHT22;702;49.466;11.086;2023-03-23T03:12:46;12.00;66.50
1415;DHT22;702;49.466;11.086;2023-03-23T03:15:25;11.90;66.40
1415;DHT22;702;49.466;11.086;2023-03-23T03:18:00;12.00;66.40
1415;DHT22;702;49.466;11.086;2023-03-23T03:20:35;11.90;66.10
1415;DHT22;702;49.466;11.086;2023-03-23T03:23:05;12.00;66.20
1415;DHT22;702;49.466;11.086;2023-03-23T03:25:35;12.00;66.30
1415;DHT22;702;49.466;11.086;2023-03-23T03:28:03;12.00;66.10
1415;DHT22;702;49.466;11.086;2023-03-23T03:30:32;12.00;66.00
1415;DHT22;702;49.466;11.086;2023-03-23T03:33:00;12.00;65.90
1415;DHT22;702;49.466;11.086;2023-03-23T03:35:30;12.10;65.90
1415;DHT22;702;49.466;11.086;2023-03-23T03:38:05;12.00;65.80
1415;DHT22;702;49.466;11.086;2023-03-23T03:40:33;12.00;66.00
1415;DHT22;702;49.466;11.086;2023-03-23T03:43:01;12.00;66.00
1415;DHT22;702;49.466;11.086;2023-03-23T03:45:29;11.90;66.10
1415;DHT22;702;49.466;11.086;2023-03-23T03:47:59;11.90;66.40
1415;DHT22;702;49.466;11.086;2023-03-23T03:50:27;11.80;66.30
1415;DHT22;702;49.466;11.086;2023-03-23T03:52:56;11.80;66.50
1415;DHT22;702;49.466;11.086;2023-03-23T03:55:24;11.70;66.80
1415;DHT22;702;49.466;11.086;2023-03-23T03:57:54;11.70;67.00
1415;DHT22;702;49.466;11.086;2023-03-23T04:00:23;11.60;67.20
1415;DHT22;702;49.466;11.086;2023-03-23T04:02:51;11.60;67.20
1415;DHT22;702;49.466;11.086;2023-03-23T04:05:20;11.60;67.40
1415;DHT22;702;49.466;11.086;2023-03-23T04:07:48;11.60;67.40
1415;DHT22;702;49.466;11.086;2023-03-23T04:10:19;11.70;67.30
1415;DHT22;702;49.466;11.086;2023-03-23T04:12:51;11.60;67.30
1415;DHT22;702;49.466;11.086;2023-03-23T04:15:18;11.60;67.40
1415;DHT22;702;49.466;11.086;2023-03-23T04:17:46;11.60;67.20
1415;DHT22;702;49.466;11.086;2023-03-23T04:20:13;11.70;67.30
1415;DHT22;702;49.466;11.086;2023-03-23T04:22:44;11.80;67.30
1415;DHT22;702;49.466;11.086;2023-03-23T04:25:15;11.80;67.20
1415;DHT22;702;49.466;11.086;2023-03-23T04:27:47;11.90;67.10
1415;DHT22;702;49.466;11.086;2023-03-23T04:30:19;11.90;67.10
1415;DHT22;702;49.466;11.086;2023-03-23T04:32:48;11.90;67.20
1415;DHT22;702;49.466;11.086;2023-03-23T04:35:19;11.90;67.30
1415;DHT22;702;49.466;11.086;2023-03-23T04:37:47;11.90;67.20
1415;DHT22;702;49.466;11.086;2023-03-23T04:40:17;11.90;67.30
1415;DHT22;702;49.466;11.086;2023-03-23T04:42:46;11.90;67.40
1415;DHT22;702;49.466;11.086;2023-03-23T04:45:15;11.90;67.60
1415;DHT22;702;49.466;11.086;2023-03-23T04:47:48;11.90;67.70
1415;DHT22;702;49.466;11.086;2023-03-23T04:50:20;11.90;67.70
1415;DHT22;702;49.466;11.086;2023-03-23T04:52:50;11.80;67.70
1415;DHT22;702;49.466;11.086;2023-03-23T04:55:18;11.90;68.00
1415;DHT22;702;49.466;11.086;2023-03-23T04:57:46;11.90;68.00
1415;DHT22;702;49.466;11.086;2023-03-23T05:00:15;11.80;68.00
1415;DHT22;702;49.466;11.086;2023-03-23T05:02:44;11.90;68.00
1415;DHT22;702;49.466;11.086;2023-03-23T05:05:13;11.90;68.20
1415;DHT22;702;49.466;11.086;2023-03-23T05:07:42;11.90;68.10
1415;DHT22;702;49.466;11.086;2023-03-23T05:10:10;11.90;68.00
1415;DHT22;702;49.466;11.086;2023-03-23T05:12:40;11.90;68.00
1415;DHT22;702;49.466;11.086;2023-03-23T05:15:10;12.00;68.00
1415;DHT22;702;49.466;11.086;2023-03-23T05:17:38;12.00;68.00
1415;DHT22;702;49.466;11.086;2023-03-23T05:20:11;12.10;67.90
1415;DHT22;702;49.466;11.086;2023-03-23T05:22:40;12.10;68.20
1415;DHT22;702;49.466;11.086;2023-03-23T05:25:11;12.00;67.90
1415;DHT22;702;49.466;11.086;2023-03-23T05:27:39;12.00;67.90
1415;DHT22;702;49.466;11.086;2023-03-23T05:30:09;12.10;67.90
1415;DHT22;702;49.466;11.086;2023-03-23T05:32:41;12.10;67.80
1415;DHT22;702;49.466;11.086;2023-03-23T05:35:08;12.10;67.90
1415;DHT22;702;49.466;11.086;2023-03-23T05:37:35;12.10;67.60
1415;DHT22;702;49.466;11.086;2023-03-23T05:40:03;12.10;67.80
1415;DHT22;702;49.466;11.086;2023-03-23T05:42:32;12.10;67.60
1415;DHT22;702;49.466;11.086;2023-03-23T05:45:01;12.20;67.60
1415;DHT22;702;49.466;11.086;2023-03-23T05:47:29;12.20;67.50
1415;DHT22;702;49.466;11.086;2023-03-23T05:49:56;12.30;67.60
1415;DHT22;702;49.466;11.086;2023-03-23T05:52:24;12.30;67.10
1415;DHT22;702;49.466;11.086;2023-03-23T05:54:52;12.30;67.20
1415;DHT22;702;49.466;11.086;2023-03-23T05:57:19;12.40;67.20
1415;DHT22;702;49.466;11.086;2023-03-23T05:59:48;12.40;67.00
1415;DHT22;702;49.466;11.086;2023-03-23T06:02:17;12.40;67.00
1415;DHT22;702;49.466;11.086;2023-03-23T06:04:44;12.50;66.80
1415;DHT22;702;49.466;11.086;2023-03-23T06:07:11;12.40;66.80
1415;DHT22;702;49.466;11.086;2023-03-23T06:09:40;12.50;66.60
1415;DHT22;702;49.466;11.086;2023-03-23T06:12:08;12.60;66.20
1415;DHT22;702;49.466;11.086;2023-03-23T06:14:37;12.70;66.10
1415;DHT22;702;49.466;11.086;2023-03-23T06:17:05;12.90;66.30
1415;DHT22;702;49.466;11.086;2023-03-23T06:19:35;13.00;66.80
1415;DHT22;702;49.466;11.086;2023-03-23T06:22:02;13.10;67.10
1415;DHT22;702;49.466;11.086;2023-03-23T06:24:30;13.20;67.20
1415;DHT22;702;49.466;11.086;2023-03-23T06:26:59;13.30;67.30
1415;DHT22;702;49.466;11.086;2023-03-23T06:29:26;13.20;67.00
1415;DHT22;702;49.466;11.086;2023-03-23T06:31:56;13.10;67.30
1415;DHT22;702;49.466;11.086;2023-03-23T06:34:25;13.10;67.20
1415;DHT22;702;49.466;11.086;2023-03-23T06:36:53;13.10;67.30
1415;DHT22;702;49.466;11.086;2023-03-23T06:39:21;13.00;66.90
1415;DHT22;702;49.466;11.086;2023-03-23T06:41:48;13.10;66.40
1415;DHT22;702;49.466;11.086;2023-03-23T06:44:16;13.10;66.10
1415;DHT22;702;49.466;11.086;2023-03-23T06:46:43;13.10;66.10
1415;DHT22;702;49.466;11.086;2023-03-23T06:49:10;13.20;66.10
1415;DHT22;702;49.466;11.086;2023-03-23T06:51:37;13.20;65.60
1415;DHT22;702;49.466;11.086;2023-03-23T06:54:06;13.30;65.60
1415;DHT22;702;49.466;11.086;2023-03-23T06:56:34;13.30;65.50
1415;DHT22;702;49.466;11.086;2023-03-23T06:59:02;13.40;65.50
1415;DHT22;702;49.466;11.086;2023-03-23T07:01:30;13.60;65.60
1415;DHT22;702;49.466;11.086;2023-03-23T07:03:57;13.80;65.00
1415;DHT22;702;49.466;11.086;2023-03-23T07:06:24;14.00;64.60
1415;DHT22;702;49.466;11.086;2023-03-23T07:08:53;14.20;64.00
1415;DHT22;702;49.466;11.086;2023-03-23T07:11:21;14.40;63.50
1415;DHT22;702;49.466;11.086;2023-03-23T07:13:49;14.50;63.10
1415;DHT22;702;49.466;11.086;2023-03-23T07:16:17;14.70;62.70
1415;DHT22;702;49.466;11.086;2023-03-23T07:18:44;14.90;62.60
1415;DHT22;702;49.466;11.086;2023-03-23T07:21:13;14.90;62.00
1415;DHT22;702;49.466;11.086;2023-03-23T07:23:41;14.90;62.00
1415;DHT22;702;49.466;11.086;2023-03-23T07:26:08;14.90;61.70
1415;DHT22;702;49.466;11.086;2023-03-23T07:28:37;14.80;62.90
1415;DHT22;702;49.466;11.086;2023-03-23T07:31:05;15.00;61.90
1415;DHT22;702;49.466;11.086;2023-03-23T07:33:34;14.90;62.00
1415;DHT22;702;49.466;11.086;2023-03-23T07:36:02;14.80;61.80
1415;DHT22;702;49.466;11.086;2023-03-23T07:38:29;14.80;63.30
1415;DHT22;702;49.466;11.086;2023-03-23T07:40:57;14.60;61.90
1415;DHT22;702;49.466;11.086;2023-03-23T07:43:25;14.50;62.40
1415;DHT22;702;49.466;11.086;2023-03-23T07:45:54;14.50;62.20
1415;DHT22;702;49.466;11.086;2023-03-23T07:48:21;14.40;62.10
1415;DHT22;702;49.466;11.086;2023-03-23T07:50:49;14.50;62.40
1415;DHT22;702;49.466;11.086;2023-03-23T07:53:16;14.60;62.90
1415;DHT22;702;49.466;11.086;2023-03-23T07:55:43;14.70;63.30
1415;DHT22;702;49.466;11.086;2023-03-23T07:58:10;14.70;63.60
1415;DHT22;702;49.466;11.086;2023-03-23T08:00:42;14.80;63.80
1415;DHT22;702;49.466;11.086;2023-03-23T08:03:11;14.90;64.40
1415;DHT22;702;49.466;11.086;2023-03-23T08:05:38;15.00;64.50
1415;DHT22;702;49.466;11.086;2023-03-23T08:08:07;15.10;66.00
1415;DHT22;702;49.466;11.086;2023-03-23T08:10:37;15.10;66.30
1415;DHT22;702;49.466;11.086;2023-03-23T08:13:05;15.10;66.70
1415;DHT22;702;49.466;11.086;2023-03-23T08:15:32;15.10;66.90
1415;DHT22;702;49.466;11.086;2023-03-23T08:18:03;15.10;66.70
1415;DHT22;702;49.466;11.086;2023-03-23T08:20:32;15.00;66.70
1415;DHT22;702;49.466;11.086;2023-03-23T08:22:59;14.90;67.90
1415;DHT22;702;49.466;11.086;2023-03-23T08:25:29;14.80;67.40
1415;DHT22;702;49.466;11.086;2023-03-23T08:27:59;14.70;67.50
1415;DHT22;702;49.466;11.086;2023-03-23T08:30:28;14.70;67.90
1415;DHT22;702;49.466;11.086;2023-03-23T08:32:58;14.70;67.80
1415;DHT22;702;49.466;11.086;2023-03-23T08:35:27;14.60;68.40
1415;DHT22;702;49.466;11.086;2023-03-23T08:37:56;14.50;68.80
1415;DHT22;702;49.466;11.086;2023-03-23T08:40:24;14.50;69.30
1415;DHT22;702;49.466;11.086;2023-03-23T08:42:52;14.50;69.20
1415;DHT22;702;49.466;11.086;2023-03-23T08:45:23;14.70;69.00
1415;DHT22;702;49.466;11.086;2023-03-23T08:47:53;14.60;68.50
1415;DHT22;702;49.466;11.086;2023-03-23T08:50:24;14.70;68.50
1415;DHT22;702;49.466;11.086;2023-03-23T08:52:55;14.80;68.90
1415;DHT22;702;49.466;11.086;2023-03-23T08:55:23;14.80;68.20
1415;DHT22;702;49.466;11.086;2023-03-23T08:57:50;14.90;68.60
1415;DHT22;702;49.466;11.086;2023-03-23T09:00:20;15.10;68.30
1415;DHT22;702;49.466;11.086;2023-03-23T09:02:52;15.20;68.20
1415;DHT22;702;49.466;11.086;2023-03-23T09:05:23;15.20;68.60
1415;DHT22;702;49.466;11.086;2023-03-23T09:07:55;15.20;68.50
1415;DHT22;702;49.466;11.086;2023-03-23T09:10:27;15.20;68.20
1415;DHT22;702;49.466;11.086;2023-03-23T09:12:57;15.30;68.00
1415;DHT22;702;49.466;11.086;2023-03-23T09:15:24;15.40;68.70
1415;DHT22;702;49.466;11.086;2023-03-23T09:17:53;15.40;68.10
1415;DHT22;702;49.466;11.086;2023-03-23T09:20:24;15.70;68.20
1415;DHT22;702;49.466;11.086;2023-03-23T09:22:54;15.70;67.50
1415;DHT22;702;49.466;11.086;2023-03-23T09:25:26;15.90;67.10
1415;DHT22;702;49.466;11.086;2023-03-23T09:27:56;16.00;67.50
1415;DHT22;702;49.466;11.086;2023-03-23T09:30:26;16.00;66.80
1415;DHT22;702;49.466;11.086;2023-03-23T09:32:56;16.10;66.00
1415;DHT22;702;49.466;11.086;2023-03-23T09:35:26;16.10;65.80
1415;DHT22;702;49.466;11.086;2023-03-23T09:37:54;16.30;64.60
1415;DHT22;702;49.466;11.086;2023-03-23T09:40:26;16.50;64.60
1415;DHT22;702;49.466;11.086;2023-03-23T09:43:06;16.70;63.60
1415;DHT22;702;49.466;11.086;2023-03-23T09:45:47;16.80;62.80
1415;DHT22;702;49.466;11.086;2023-03-23T09:48:50;16.80;62.70
1415;DHT22;702;49.466;11.086;2023-03-23T09:51:28;17.00;62.80
1415;DHT22;702;49.466;11.086;2023-03-23T09:54:03;16.90;63.00
1415;DHT22;702;49.466;11.086;2023-03-23T09:56:34;16.90;62.20
1415;DHT22;702;49.466;11.086;2023-03-23T09:59:07;17.10;61.60
1415;DHT22;702;49.466;11.086;2023-03-23T10:01:43;17.00;61.50
1415;DHT22;702;49.466;11.086;2023-03-23T10:04:15;16.80;61.40
1415;DHT22;702;49.466;11.086;2023-03-23T10:06:49;16.90;61.20
1415;DHT22;702;49.466;11.086;2023-03-23T10:09:18;16.80;61.20
1415;DHT22;702;49.466;11.086;2023-03-23T10:11:57;16.50;61.30
1415;DHT22;702;49.466;11.086;2023-03-23T10:14:37;16.60;61.30
1415;DHT22;702;49.466;11.086;2023-03-23T10:17:14;16.60;61.80
1415;DHT22;702;49.466;11.086;2023-03-23T10:19:49;16.30;61.60
1415;DHT22;702;49.466;11.086;2023-03-23T10:22:25;16.40;61.60
1415;DHT22;702;49.466;11.086;2023-03-23T10:24:59;16.40;61.80
1415;DHT22;702;49.466;11.086;2023-03-23T10:27:34;16.60;62.30
1415;DHT22;702;49.466;11.086;2023-03-23T10:30:15;16.40;62.40
1415;DHT22;702;49.466;11.086;2023-03-23T10:32:48;16.40;62.40
1415;DHT22;702;49.466;11.086;2023-03-23T10:35:24;16.20;62.10
1415;DHT22;702;49.466;11.086;2023-03-23T10:37:59;16.00;62.60
1415;DHT22;702;49.466;11.086;2023-03-23T10:40:29;15.80;63.10
1415;DHT22;702;49.466;11.086;2023-03-23T10:42:59;15.70;63.50
1415;DHT22;702;49.466;11.086;2023-03-23T10:45:28;15.60;63.80
1415;DHT22;702;49.466;11.086;2023-03-23T10:48:13;15.70;64.00
1415;DHT22;702;49.466;11.086;2023-03-23T10:50:50;15.90;64.00
1415;DHT22;702;49.466;11.086;2023-03-23T10:53:22;15.80;64.20
1415;DHT22;702;49.466;11.086;2023-03-23T10:55:52;15.80;64.40
1415;DHT22;702;49.466;11.086;2023-03-23T10:58:28;15.60;64.70
1415;DHT22;702;49.466;11.086;2023-03-23T11:00:58;15.50;65.40
1415;DHT22;702;49.466;11.086;2023-03-23T11:03:37;15.40;65.90
1415;DHT22;702;49.466;11.086;2023-03-23T11:06:08;15.50;66.20
1415;DHT22;702;49.466;11.086;2023-03-23T11:08:47;15.50;66.20
1415;DHT22;702;49.466;11.086;2023-03-23T11:11:19;15.30;66.50
1415;DHT22;702;49.466;11.086;2023-03-23T11:13:55;15.20;67.10
1415;DHT22;702;49.466;11.086;2023-03-23T11:16:27;15.20;67.60
1415;DHT22;702;49.466;11.086;2023-03-23T11:18:55;15.10;67.80
1415;DHT22;702;49.466;11.086;2023-03-23T11:21:24;15.20;68.00
1415;DHT22;702;49.466;11.086;2023-03-23T11:23:55;15.20;68.20
1415;DHT22;702;49.466;11.086;2023-03-23T11:26:26;15.20;68.40
1415;DHT22;702;49.466;11.086;2023-03-23T11:28:59;15.20;68.70
1415;DHT22;702;49.466;11.086;2023-03-23T11:31:34;15.30;68.50
1415;DHT22;702;49.466;11.086;2023-03-23T11:34:04;15.30;68.80
1415;DHT22;702;49.466;11.086;2023-03-23T11:36:43;15.20;69.20
1415;DHT22;702;49.466;11.086;2023-03-23T11:39:23;15.20;69.20
1415;DHT22;702;49.466;11.086;2023-03-23T11:41:53;15.30;69.30
1415;DHT22;702;49.466;11.086;2023-03-23T11:44:24;15.30;69.30
1415;DHT22;702;49.466;11.086;2023-03-23T11:47:02;15.30;69.20
1415;DHT22;702;49.466;11.086;2023-03-23T11:49:40;15.40;69.50
1415;DHT22;702;49.466;11.086;2023-03-23T11:52:15;15.50;69.30
1415;DHT22;702;49.466;11.086;2023-03-23T11:54:52;15.70;69.40
1415;DHT22;702;49.466;11.086;2023-03-23T11:57:22;15.90;68.90
1415;DHT22;702;49.466;11.086;2023-03-23T11:59:51;15.80;69.10
1415;DHT22;702;49.466;11.086;2023-03-23T12:02:36;15.50;69.30
1415;DHT22;702;49.466;11.086;2023-03-23T12:05:34;15.40;69.80
1415;DHT22;702;49.466;11.086;2023-03-23T12:11:21;15.40;70.10
1415;DHT22;702;49.466;11.086;2023-03-23T12:14:03;15.40;70.30
1415;DHT22;702;49.466;11.086;2023-03-23T12:16:48;15.50;70.50
1415;DHT22;702;49.466;11.086;2023-03-23T12:19:25;15.60;70.90
1415;DHT22;702;49.466;11.086;2023-03-23T12:22:02;15.80;70.40
1415;DHT22;702;49.466;11.086;2023-03-23T12:24:44;16.10;70.00
1415;DHT22;702;49.466;11.086;2023-03-23T12:27:23;16.50;69.20
1415;DHT22;702;49.466;11.086;2023-03-23T12:30:04;16.50;68.80
1415;DHT22;702;49.466;11.086;2023-03-23T12:32:47;16.50;68.90
1415;DHT22;702;49.466;11.086;2023-03-23T12:35:27;16.90;68.40
1415;DHT22;702;49.466;11.086;2023-03-23T12:38:10;16.80;67.70
1415;DHT22;702;49.466;11.086;2023-03-23T12:41:05;17.00;67.80
1415;DHT22;702;49.466;11.086;2023-03-23T12:43:43;17.20;67.40
1415;DHT22;702;49.466;11.086;2023-03-23T12:49:31;16.90;67.00
1415;DHT22;702;49.466;11.086;2023-03-23T12:52:13;16.60;67.90
1415;DHT22;702;49.466;11.086;2023-03-23T12:54:45;16.40;67.90
1415;DHT22;702;49.466;11.086;2023-03-23T12:57:23;16.50;67.60
1415;DHT22;702;49.466;11.086;2023-03-23T12:59:59;16.60;67.70
1415;DHT22;702;49.466;11.086;2023-03-23T13:02:40;16.80;67.70
1415;DHT22;702;49.466;11.086;2023-03-23T13:05:24;16.90;67.50
1415;DHT22;702;49.466;11.086;2023-03-23T13:07:57;16.80;67.10
1415;DHT22;702;49.466;11.086;2023-03-23T13:10:29;16.70;67.20
1415;DHT22;702;49.466;11.086;2023-03-23T13:12:59;16.70;67.40
1415;DHT22;702;49.466;11.086;2023-03-23T13:15:33;16.60;67.00
1415;DHT22;702;49.466;11.086;2023-03-23T13:18:12;16.70;67.00
1415;DHT22;702;49.466;11.086;2023-03-23T13:20:56;16.60;66.80
1415;DHT22;702;49.466;11.086;2023-03-23T13:23:31;16.40;66.90
1415;DHT22;702;49.466;11.086;2023-03-23T13:26:03;16.60;66.80
1415;DHT22;702;49.466;11.086;2023-03-23T13:28:48;16.70;66.50
1415;DHT22;702;49.466;11.086;2023-03-23T13:31:21;16.60;66.50
1415;DHT22;702;49.466;11.086;2023-03-23T13:34:02;16.90;66.30
1415;DHT22;702;49.466;11.086;2023-03-23T13:36:35;16.90;66.10
1415;DHT22;702;49.466;11.086;2023-03-23T13:39:05;17.10;65.60
1415;DHT22;702;49.466;11.086;2023-03-23T13:41:44;16.80;65.40
1415;DHT22;702;49.466;11.086;2023-03-23T13:44:23;16.60;66.50
1415;DHT22;702;49.466;11.086;2023-03-23T13:46:56;16.70;66.10
1415;DHT22;702;49.466;11.086;2023-03-23T13:49:25;17.10;65.80
1415;DHT22;702;49.466;11.086;2023-03-23T13:52:06;17.10;65.10
1415;DHT22;702;49.466;11.086;2023-03-23T13:54:44;17.00;65.30
1415;DHT22;702;49.466;11.086;2023-03-23T13:57:33;17.10;65.30
1415;DHT22;702;49.466;11.086;2023-03-23T14:00:25;17.30;65.00
1415;DHT22;702;49.466;11.086;2023-03-23T14:03:01;16.90;65.10
1415;DHT22;702;49.466;11.086;2023-03-23T14:05:35;16.80;65.50
1415;DHT22;702;49.466;11.086;2023-03-23T14:08:14;17.00;65.40
1415;DHT22;702;49.466;11.086;2023-03-23T14:10:52;17.30;65.20
1415;DHT22;702;49.466;11.086;2023-03-23T14:13:24;17.40;65.10
1415;DHT22;702;49.466;11.086;2023-03-23T14:15:58;17.60;65.00
1415;DHT22;702;49.466;11.086;2023-03-23T14:18:32;17.60;65.00
1415;DHT22;702;49.466;11.086;2023-03-23T14:21:03;17.50;65.30
1415;DHT22;702;49.466;11.086;2023-03-23T14:23:33;17.40;65.20
1415;DHT22;702;49.466;11.086;2023-03-23T14:26:03;17.40;65.10
1415;DHT22;702;49.466;11.086;2023-03-23T14:28:39;17.50;65.30
1415;DHT22;702;49.466;11.086;2023-03-23T14:31:16;17.60;65.10
1415;DHT22;702;49.466;11.086;2023-03-23T14:33:46;17.70;65.00
1415;DHT22;702;49.466;11.086;2023-03-23T14:36:18;17.70;65.00
1415;DHT22;702;49.466;11.086;2023-03-23T14:38:49;17.80;64.70
1415;DHT22;702;49.466;11.086;2023-03-23T14:41:22;17.70;64.60
1415;DHT22;702;49.466;11.086;2023-03-23T14:43:50;17.40;64.60
1415;DHT22;702;49.466;11.086;2023-03-23T14:46:18;17.20;65.00
1415;DHT22;702;49.466;11.086;2023-03-23T14:48:45;17.10;65.10
1415;DHT22;702;49.466;11.086;2023-03-23T14:51:18;16.90;65.10
1415;DHT22;702;49.466;11.086;2023-03-23T14:53:47;16.80;65.40
1415;DHT22;702;49.466;11.086;2023-03-23T14:56:18;16.80;65.50
1415;DHT22;702;49.466;11.086;2023-03-23T14:58:53;16.70;65.50
1415;DHT22;702;49.466;11.086;2023-03-23T15:01:25;16.50;66.00
1415;DHT22;702;49.466;11.086;2023-03-23T15:03:57;16.50;66.20
1415;DHT22;702;49.466;11.086;2023-03-23T15:06:28;16.40;66.40
1415;DHT22;702;49.466;11.086;2023-03-23T15:09:00;16.30;66.80
1415;DHT22;702;49.466;11.086;2023-03-23T15:11:30;16.30;66.90
1415;DHT22;702;49.466;11.086;2023-03-23T15:14:01;16.30;67.20
1415;DHT22;702;49.466;11.086;2023-03-23T15:16:31;16.20;67.40
1415;DHT22;702;49.466;11.086;2023-03-23T15:19:02;16.20;67.70
1415;DHT22;702;49.466;11.086;2023-03-23T15:21:33;16.10;67.60
1415;DHT22;702;49.466;11.086;2023-03-23T15:24:20;16.10;68.00
1415;DHT22;702;49.466;11.086;2023-03-23T15:26:52;16.00;68.10
1415;DHT22;702;49.466;11.086;2023-03-23T15:29:21;16.00;68.40
1415;DHT22;702;49.466;11.086;2023-03-23T15:31:51;15.90;68.60
1415;DHT22;702;49.466;11.086;2023-03-23T15:34:27;15.80;68.70
1415;DHT22;702;49.466;11.086;2023-03-23T15:36:59;15.70;69.00
1415;DHT22;702;49.466;11.086;2023-03-23T15:39:30;15.70;69.10
1415;DHT22;702;49.466;11.086;2023-03-23T15:41:59;15.70;69.10
1415;DHT22;702;49.466;11.086;2023-03-23T15:44:31;15.70;69.10
1415;DHT22;702;49.466;11.086;2023-03-23T15:47:18;15.80;69.30
1415;DHT22;702;49.466;11.086;2023-03-23T15:49:58;15.90;69.30
1415;DHT22;702;49.466;11.086;2023-03-23T15:52:29;16.00;69.00
1415;DHT22;702;49.466;11.086;2023-03-23T15:54:57;15.90;69.10
1415;DHT22;702;49.466;11.086;2023-03-23T15:57:24;15.90;69.60
1415;DHT22;702;49.466;11.086;2023-03-23T15:59:52;16.00;69.20
1415;DHT22;702;49.466;11.086;2023-03-23T16:02:22;16.00;69.10
1415;DHT22;702;49.466;11.086;2023-03-23T16:04:51;16.00;69.00
1415;DHT22;702;49.466;11.086;2023-03-23T16:07:21;16.00;69.20
1415;DHT22;702;49.466;11.086;2023-03-23T16:09:49;16.00;69.30
1415;DHT22;702;49.466;11.086;2023-03-23T16:12:18;16.20;69.30
1415;DHT22;702;49.466;11.086;2023-03-23T16:14:46;16.20;69.30
1415;DHT22;702;49.466;11.086;2023-03-23T16:17:19;16.10;69.20
1415;DHT22;702;49.466;11.086;2023-03-23T16:19:46;16.10;69.50
1415;DHT22;702;49.466;11.086;2023-03-23T16:22:14;16.00;69.80
1415;DHT22;702;49.466;11.086;2023-03-23T16:24:41;16.10;69.80
1415;DHT22;702;49.466;11.086;2023-03-23T16:27:09;16.00;69.80
1415;DHT22;702;49.466;11.086;2023-03-23T16:29:38;15.90;70.20
1415;DHT22;702;49.466;11.086;2023-03-23T16:32:05;16.00;70.30
1415;DHT22;702;49.466;11.086;2023-03-23T16:34:33;15.90;70.30
1415;DHT22;702;49.466;11.086;2023-03-23T16:37:01;15.80;70.50
1415;DHT22;702;49.466;11.086;2023-03-23T16:39:28;15.80;70.80